Terminal Aerodrome Forecast
Issued by NWS

Home | Current Version | Previous Version | Text Only | Print | Product List | Glossary On
Versions: 1 2 3 4 5 6 7 8 9 10 11 12
881
FTUS41 KLWX 231740
TAFMTN
TAF
KMTN 231740Z 2318/2418 28008KT P6SM BKN050
     FM232000 27008KT P6SM VCTS BKN050CB
     FM240000 28006KT P6SM SCT060
     FM240600 33004KT P6SM FEW060
     FM241200 03004KT P6SM FEW070
     FM241600 13004KT P6SM FEW050=

USA.gov is the U.S. government's official web portal to all federal, state and local government web resources and services.